Terminal Aerodrome Forecast
Issued by NWS Cleveland, OH

Home | Current Version | Previous Version | Text Only | Print | Product List | Glossary Off
Versions: 1 2 3 4 5 6 7 8 9 10 11 12 13 14 15

000
FTUS41 KCLE 060525
TAFTOL
TAF
KTOL 060525Z 0606/0706 VRB03KT P6SM SCT100
     FM061000 08005KT P6SM OVC100
     FM061500 07008KT 5SM -RA OVC025
     FM061700 07010KT 2SM -RA BR OVC008
     FM062100 27012KT P6SM OVC025=

USA.gov is the U.S. government's official web portal to all federal, state and local government web resources and services.